Time;durP1;ratioP1;P1;durP2;ratioP2;P2;SDS_P1;SDS_P2;PMS_P1;PMS_P2;Temp;Humidity;BMP_temperature;BMP_pressure;BME280_temperature;BME280_humidity;BME280_pressure;Samples;Min_cycle;Max_cycle;Signal;HPM_P1;HPM_P2
2023/04/21 00:01:01;;;;;;;22.65;15.60;;;9.10;99.90;;;;;;5066640;28;20408;-75
2023/04/21 00:03:28;;;;;;;22.40;14.90;;;9.10;99.90;;;;;;5068605;28;20799;-75
2023/04/21 00:05:57;;;;;;;21.63;14.40;;;9.10;99.90;;;;;;5066097;28;20489;-76
2023/04/21 00:08:25;;;;;;;23.10;14.82;;;9.00;99.90;;;;;;5068669;28;20447;-75
2023/04/21 00:10:50;;;;;;;21.10;14.23;;;9.00;99.90;;;;;;5083445;28;20437;-75
2023/04/21 00:13:16;;;;;;;21.37;14.87;;;9.00;99.90;;;;;;5051126;28;20449;-75
2023/04/21 00:15:41;;;;;;;21.80;14.63;;;9.00;99.90;;;;;;5064329;28;20841;-75
2023/04/21 00:18:08;;;;;;;22.20;15.60;;;9.00;99.90;;;;;;5082942;28;20517;-75
2023/04/21 00:20:34;;;;;;;23.10;15.70;;;8.90;99.90;;;;;;5097461;28;20405;-75
2023/04/21 00:23:01;;;;;;;23.07;15.57;;;8.90;99.90;;;;;;5082623;28;20398;-75
2023/04/21 00:25:26;;;;;;;23.88;15.25;;;8.90;99.90;;;;;;5063071;28;20412;-75
2023/04/21 00:27:52;;;;;;;19.65;15.25;;;8.90;99.90;;;;;;5096414;28;20402;-75
2023/04/21 00:30:18;;;;;;;19.50;15.03;;;8.80;99.90;;;;;;5046386;28;20399;-75
2023/04/21 00:32:43;;;;;;;23.65;15.43;;;8.80;99.90;;;;;;5051631;28;20407;-75
2023/04/21 00:35:09;;;;;;;23.03;15.60;;;8.80;99.90;;;;;;5048298;28;20419;-75
2023/04/21 00:37:35;;;;;;;21.20;15.38;;;8.80;99.90;;;;;;5053066;28;20766;-75
2023/04/21 00:40:01;;;;;;;22.70;14.93;;;8.70;99.90;;;;;;5050028;28;20416;-75
2023/04/21 00:42:27;;;;;;;24.07;15.17;;;8.80;99.90;;;;;;5056175;28;20418;-75
2023/04/21 00:44:53;;;;;;;25.30;14.98;;;8.70;99.90;;;;;;5055543;28;20406;-76
2023/04/21 00:47:19;;;;;;;21.60;15.20;;;8.70;99.90;;;;;;5057573;28;20417;-76
2023/04/21 00:49:46;;;;;;;22.85;15.70;;;8.70;99.90;;;;;;5065984;28;20403;-75
2023/04/21 00:52:13;;;;;;;21.05;14.77;;;8.70;99.90;;;;;;5045817;28;20420;-75
2023/04/21 00:54:38;;;;;;;22.88;14.82;;;8.70;99.90;;;;;;5050197;28;20418;-75
2023/04/21 00:57:06;;;;;;;23.60;15.97;;;8.70;99.90;;;;;;5064056;28;20424;-75
2023/04/21 00:59:32;;;;;;;22.67;15.30;;;8.70;99.90;;;;;;5061489;28;20771;-75
2023/04/21 01:01:58;;;;;;;26.10;15.27;;;8.60;99.90;;;;;;5065832;28;20491;-76
2023/04/21 01:04:24;;;;;;;21.88;14.60;;;8.60;99.90;;;;;;5062698;28;20536;-76
2023/04/21 01:06:50;;;;;;;24.48;15.55;;;8.60;99.90;;;;;;5062572;28;20404;-75
2023/04/21 01:09:16;;;;;;;22.60;15.07;;;8.60;99.90;;;;;;5060796;28;20446;-76
2023/04/21 01:11:58;;;;;;;22.85;15.55;;;8.60;99.90;;;;;;5050572;28;20402;-75
2023/04/21 01:14:25;;;;;;;23.35;15.73;;;8.60;99.90;;;;;;5062986;28;20411;-75
2023/04/21 01:16:51;;;;;;;24.00;15.55;;;8.60;99.90;;;;;;5062845;28;20829;-76
2023/04/21 01:19:19;;;;;;;23.90;15.95;;;8.50;99.90;;;;;;5063717;28;20411;-75
2023/04/21 01:21:44;;;;;;;24.67;16.10;;;8.50;99.90;;;;;;5062676;28;20901;-76
2023/04/21 01:24:10;;;;;;;21.87;15.13;;;8.50;99.90;;;;;;5052047;28;20416;-75
2023/04/21 01:26:36;;;;;;;21.33;15.30;;;8.50;99.90;;;;;;5043994;28;20409;-75
2023/04/21 01:29:02;;;;;;;24.50;15.85;;;8.50;99.90;;;;;;5057376;28;20842;-75
2023/04/21 01:31:27;;;;;;;23.83;16.23;;;8.50;99.90;;;;;;5064255;28;20408;-78
2023/04/21 01:33:53;;;;;;;22.55;15.27;;;8.40;99.90;;;;;;5084372;28;20413;-75
2023/04/21 01:36:19;;;;;;;22.85;16.75;;;8.40;99.90;;;;;;5082590;28;20422;-75
2023/04/21 01:38:44;;;;;;;22.23;15.87;;;8.40;99.90;;;;;;5084338;28;20398;-75
2023/04/21 01:41:10;;;;;;;23.38;16.20;;;8.40;99.90;;;;;;5065411;28;20770;-76
2023/04/21 01:43:36;;;;;;;26.40;16.60;;;8.30;99.90;;;;;;5078176;28;20406;-75
2023/04/21 01:46:05;;;;;;;24.15;16.50;;;8.30;99.90;;;;;;5053055;28;20505;-76
2023/04/21 01:48:31;;;;;;;23.67;16.77;;;8.30;99.90;;;;;;5049384;28;20405;-76
2023/04/21 01:50:57;;;;;;;22.42;16.17;;;8.30;99.90;;;;;;5064163;28;20409;-76
2023/04/21 01:53:22;;;;;;;23.93;16.30;;;8.30;99.90;;;;;;5083405;28;20398;-76
2023/04/21 01:55:48;;;;;;;25.20;16.67;;;8.30;99.90;;;;;;5065908;28;20481;-76
2023/04/21 01:58:13;;;;;;;24.23;18.07;;;8.20;99.90;;;;;;5066395;28;20407;-76
2023/04/21 02:00:39;;;;;;;21.67;15.93;;;8.30;99.90;;;;;;5066464;28;20903;-76
2023/04/21 02:03:05;;;;;;;21.63;16.20;;;8.20;99.90;;;;;;5059172;28;20401;-76
2023/04/21 02:05:31;;;;;;;25.17;16.87;;;8.20;99.90;;;;;;5063822;28;20402;-76
2023/04/21 02:07:56;;;;;;;25.15;17.45;;;8.20;99.90;;;;;;5082081;28;20402;-76
2023/04/21 02:10:22;;;;;;;24.87;16.70;;;8.20;99.90;;;;;;5049584;28;20474;-76
2023/04/21 02:12:48;;;;;;;24.83;17.02;;;8.20;99.90;;;;;;5058571;28;20505;-76
2023/04/21 02:15:13;;;;;;;28.07;18.10;;;8.20;99.90;;;;;;5063193;28;20398;-76
2023/04/21 02:17:39;;;;;;;26.30;17.10;;;8.20;99.90;;;;;;5049244;28;20414;-76
2023/04/21 02:20:06;;;;;;;27.60;17.33;;;8.20;99.90;;;;;;5066212;28;20405;-76
2023/04/21 02:22:31;;;;;;;28.23;18.03;;;8.20;99.90;;;;;;5067325;28;20771;-76
2023/04/21 02:24:57;;;;;;;25.52;17.00;;;8.10;99.90;;;;;;5064610;28;20410;-76
2023/04/21 02:27:23;;;;;;;24.33;17.10;;;8.10;99.90;;;;;;5067232;28;20851;-76
2023/04/21 02:29:48;;;;;;;24.98;17.42;;;8.20;99.90;;;;;;5063742;28;20413;-76
2023/04/21 02:32:14;;;;;;;25.87;16.73;;;8.20;99.90;;;;;;5085121;28;20402;-76
2023/04/21 02:34:40;;;;;;;21.98;16.40;;;8.10;99.90;;;;;;5081787;28;20553;-76
2023/04/21 02:37:06;;;;;;;23.55;16.05;;;8.10;99.90;;;;;;5066845;28;20434;-76
2023/04/21 02:39:32;;;;;;;25.77;16.87;;;8.10;99.90;;;;;;5063092;28;20477;-76
2023/04/21 02:41:57;;;;;;;26.48;16.75;;;8.10;99.90;;;;;;5067276;28;20478;-76
2023/04/21 02:44:23;;;;;;;22.80;16.37;;;8.10;99.90;;;;;;5060666;28;20453;-76
2023/04/21 02:46:49;;;;;;;24.05;16.65;;;8.10;99.90;;;;;;5069074;28;20461;-76
2023/04/21 02:49:14;;;;;;;22.00;15.50;;;8.20;99.90;;;;;;5081258;28;20407;-76
2023/04/21 02:51:40;;;;;;;23.10;15.80;;;8.10;99.90;;;;;;5081574;28;20973;-76
2023/04/21 02:54:06;;;;;;;22.00;14.70;;;8.20;99.90;;;;;;5056941;28;20406;-76
2023/04/21 02:56:33;;;;;;;22.98;15.43;;;8.10;99.90;;;;;;5089457;28;20942;-76
2023/04/21 02:58:59;;;;;;;21.90;15.35;;;8.20;99.90;;;;;;5067420;28;20442;-76
2023/04/21 03:01:24;;;;;;;23.30;16.00;;;8.10;99.90;;;;;;5087578;28;20437;-76
2023/04/21 03:03:50;;;;;;;20.23;15.43;;;8.10;99.90;;;;;;5074049;28;20410;-76
2023/04/21 03:06:16;;;;;;;21.70;14.77;;;8.10;99.90;;;;;;5087421;28;20928;-76
2023/04/21 03:08:42;;;;;;;23.95;14.40;;;8.10;99.90;;;;;;5085264;28;20402;-76
2023/04/21 03:11:07;;;;;;;25.40;14.45;;;8.00;99.90;;;;;;5087385;28;20413;-76
2023/04/21 03:13:33;;;;;;;21.10;14.00;;;8.10;99.90;;;;;;5084801;28;20438;-76
2023/04/21 03:15:59;;;;;;;21.13;14.20;;;8.10;99.90;;;;;;5087505;28;20418;-76
2023/04/21 03:18:24;;;;;;;18.70;13.93;;;8.00;99.90;;;;;;5065892;28;20398;-76
2023/04/21 03:20:50;;;;;;;18.90;13.82;;;8.10;99.90;;;;;;5087540;28;20477;-76
2023/04/21 03:23:16;;;;;;;20.60;14.23;;;8.10;99.90;;;;;;5066882;28;20836;-76
2023/04/21 03:25:42;;;;;;;20.63;13.90;;;8.10;99.90;;;;;;5069508;28;20398;-76
2023/04/21 03:28:07;;;;;;;20.05;13.60;;;8.10;99.90;;;;;;5067468;28;20955;-76
2023/04/21 03:30:33;;;;;;;19.88;13.35;;;8.00;99.90;;;;;;5068954;28;20440;-76
2023/04/21 03:32:59;;;;;;;22.10;13.57;;;8.00;99.90;;;;;;5050404;28;20917;-76
2023/04/21 03:35:25;;;;;;;21.35;13.55;;;8.10;99.90;;;;;;5087374;28;20402;-76
2023/04/21 03:37:50;;;;;;;22.20;14.27;;;8.10;99.90;;;;;;5067710;28;21053;-76
2023/04/21 03:40:16;;;;;;;20.33;13.73;;;8.00;99.90;;;;;;5087207;28;20991;-76
2023/04/21 03:42:42;;;;;;;21.52;13.52;;;8.00;99.90;;;;;;5066776;28;20444;-76
2023/04/21 03:45:08;;;;;;;21.02;13.95;;;8.00;99.90;;;;;;5076347;28;20484;-76
2023/04/21 03:47:34;;;;;;;19.98;14.18;;;8.00;99.90;;;;;;5065550;28;20416;-76
2023/04/21 03:50:03;;;;;;;20.05;13.82;;;8.00;99.90;;;;;;5068310;28;20402;-76
2023/04/21 03:52:28;;;;;;;21.58;13.90;;;8.00;99.90;;;;;;5083738;28;20955;-76
2023/04/21 03:54:54;;;;;;;20.83;13.60;;;8.00;99.90;;;;;;5087007;28;20488;-76
2023/04/21 03:57:19;;;;;;;22.57;13.77;;;8.00;99.90;;;;;;5064858;28;20515;-76
2023/04/21 03:59:45;;;;;;;20.67;13.02;;;8.00;99.90;;;;;;5068062;28;20925;-76
2023/04/21 04:02:11;;;;;;;19.97;13.50;;;7.90;99.90;;;;;;5063591;28;20410;-76
2023/04/21 04:04:36;;;;;;;20.30;13.55;;;7.90;99.90;;;;;;5085163;28;20417;-76
2023/04/21 04:07:02;;;;;;;17.17;13.30;;;7.90;99.90;;;;;;5053359;28;20405;-76
2023/04/21 04:09:28;;;;;;;20.10;13.80;;;7.90;99.90;;;;;;5085194;28;20473;-77
2023/04/21 04:11:53;;;;;;;19.40;13.15;;;8.00;99.90;;;;;;5063290;28;20399;-76
2023/04/21 04:14:19;;;;;;;21.17;13.87;;;7.90;99.90;;;;;;5084705;28;20547;-76
2023/04/21 04:16:45;;;;;;;23.77;14.18;;;7.90;99.90;;;;;;5062240;28;20544;-76
2023/04/21 04:19:10;;;;;;;19.40;13.10;;;7.90;99.90;;;;;;5066624;28;20413;-76
2023/04/21 04:21:36;;;;;;;22.40;14.15;;;8.00;99.90;;;;;;5079906;28;20912;-76
2023/04/21 04:24:04;;;;;;;18.75;13.40;;;8.00;99.90;;;;;;5066582;28;20506;-76
2023/04/21 04:26:32;;;;;;;20.70;13.70;;;8.00;99.90;;;;;;5080347;28;20408;-76
2023/04/21 04:29:01;;;;;;;21.88;13.27;;;8.00;99.90;;;;;;5083977;28;20814;-76
2023/04/21 04:31:29;;;;;;;22.23;13.63;;;8.00;99.90;;;;;;5096467;28;20402;-76
2023/04/21 04:33:55;;;;;;;18.75;13.18;;;8.00;99.90;;;;;;5083632;28;20418;-76
2023/04/21 04:36:22;;;;;;;21.33;13.43;;;8.00;99.90;;;;;;5081796;28;20450;-76
2023/04/21 04:38:48;;;;;;;19.58;13.07;;;8.00;99.90;;;;;;5083416;28;20409;-76
2023/04/21 04:41:14;;;;;;;22.48;13.20;;;8.00;99.90;;;;;;5077157;28;20778;-76
2023/04/21 04:43:40;;;;;;;21.38;13.40;;;8.10;99.90;;;;;;5077763;28;20463;-76
2023/04/21 04:46:08;;;;;;;21.23;13.30;;;8.00;99.90;;;;;;5072785;28;20410;-76
2023/04/21 04:48:34;;;;;;;20.10;13.63;;;8.00;99.90;;;;;;5085378;28;20402;-76
2023/04/21 04:51:00;;;;;;;22.07;13.20;;;8.00;99.90;;;;;;5072496;28;20490;-76
2023/04/21 04:53:27;;;;;;;19.48;13.30;;;8.10;99.90;;;;;;5085343;28;20972;-76
2023/04/21 04:55:53;;;;;;;20.67;13.07;;;8.10;99.90;;;;;;5084338;28;20429;-76
2023/04/21 04:58:19;;;;;;;20.73;13.38;;;8.10;99.90;;;;;;5049859;28;20406;-76
2023/04/21 05:00:45;;;;;;;20.33;13.33;;;8.10;99.90;;;;;;5055678;28;20413;-76
2023/04/21 05:03:11;;;;;;;19.73;12.83;;;8.10;99.90;;;;;;5055844;28;20833;-76
2023/04/21 05:05:36;;;;;;;20.38;13.05;;;8.10;99.90;;;;;;5066915;28;20418;-76
2023/04/21 05:08:02;;;;;;;21.63;13.20;;;8.20;99.90;;;;;;5058093;28;20415;-76
2023/04/21 05:10:28;;;;;;;21.23;13.70;;;8.20;99.90;;;;;;5045607;28;20522;-76
2023/04/21 05:12:53;;;;;;;19.25;12.32;;;8.20;99.90;;;;;;5049165;28;20491;-76
2023/04/21 05:15:19;;;;;;;20.43;13.00;;;8.20;99.90;;;;;;5033596;28;20755;-76
2023/04/21 05:17:45;;;;;;;19.45;12.55;;;8.30;99.90;;;;;;5041498;28;20856;-76
2023/04/21 05:20:11;;;;;;;20.47;12.87;;;8.30;99.90;;;;;;5058467;28;20949;-76
2023/04/21 05:22:37;;;;;;;21.42;12.90;;;8.30;99.90;;;;;;5049643;28;20476;-76
2023/04/21 05:25:04;;;;;;;19.30;12.60;;;8.40;99.90;;;;;;5068177;28;20399;-76
2023/04/21 05:27:30;;;;;;;19.63;12.38;;;8.40;99.90;;;;;;5071975;28;21010;-76
2023/04/21 05:29:55;;;;;;;17.67;11.90;;;8.40;99.90;;;;;;5087014;28;20481;-76
2023/04/21 05:32:21;;;;;;;23.15;12.13;;;8.40;99.90;;;;;;5051089;28;20410;-76
2023/04/21 05:34:47;;;;;;;19.50;12.07;;;8.50;99.90;;;;;;5055539;28;20942;-76
2023/04/21 05:37:12;;;;;;;18.20;11.85;;;8.60;99.90;;;;;;5068901;28;20787;-77
2023/04/21 05:39:38;;;;;;;19.47;11.83;;;8.60;99.90;;;;;;5085376;28;20971;-77
2023/04/21 05:42:04;;;;;;;19.63;11.80;;;8.60;99.90;;;;;;5051701;28;20473;-77
2023/04/21 05:44:29;;;;;;;21.85;11.80;;;8.70;99.90;;;;;;5081234;28;20431;-77
2023/04/21 05:46:55;;;;;;;19.37;11.33;;;8.80;99.90;;;;;;5058855;28;20409;-77
2023/04/21 05:49:21;;;;;;;20.27;10.93;;;8.80;99.90;;;;;;5082793;28;20893;-76
2023/04/21 05:51:46;;;;;;;17.27;11.37;;;8.90;99.90;;;;;;5066903;28;20463;-77
2023/04/21 05:54:12;;;;;;;20.33;11.65;;;9.00;99.90;;;;;;5065269;28;20460;-77
2023/04/21 05:56:38;;;;;;;18.83;11.10;;;9.00;99.90;;;;;;5070136;28;20431;-76
2023/04/21 05:59:05;;;;;;;17.15;11.13;;;9.10;99.90;;;;;;5067000;28;20782;-77
2023/04/21 06:01:31;;;;;;;19.35;11.23;;;9.10;99.90;;;;;;5071457;28;20398;-77
2023/04/21 06:03:57;;;;;;;17.17;10.00;;;9.20;99.90;;;;;;5068635;28;20462;-77
2023/04/21 06:06:25;;;;;;;19.77;11.18;;;9.20;99.90;;;;;;5089526;28;20406;-77
2023/04/21 06:08:50;;;;;;;18.75;10.40;;;9.30;99.90;;;;;;5071552;28;20412;-77
2023/04/21 06:11:16;;;;;;;17.63;10.82;;;9.40;99.90;;;;;;5069713;28;20909;-76
2023/04/21 06:13:41;;;;;;;17.20;10.60;;;9.40;99.90;;;;;;5068201;28;20402;-77
2023/04/21 06:16:07;;;;;;;17.70;9.63;;;9.50;99.90;;;;;;5071795;28;20429;-76
2023/04/21 06:18:33;;;;;;;17.50;9.73;;;9.60;99.90;;;;;;5071145;28;20429;-76
2023/04/21 06:20:58;;;;;;;21.35;10.55;;;9.60;99.90;;;;;;5090141;28;20459;-77
2023/04/21 06:23:24;;;;;;;20.37;9.97;;;9.70;99.90;;;;;;5070123;28;20521;-76
2023/04/21 06:26:03;;;;;;;16.92;9.95;;;9.70;99.90;;;;;;5105238;28;20410;-77
2023/04/21 06:28:28;;;;;;;15.67;10.00;;;9.80;99.90;;;;;;5068513;28;20475;-76
2023/04/21 06:30:54;;;;;;;17.33;10.43;;;9.90;99.90;;;;;;5070618;28;20409;-76
2023/04/21 06:33:20;;;;;;;18.65;9.90;;;10.00;99.90;;;;;;5067430;28;20406;-77
2023/04/21 06:35:45;;;;;;;17.33;9.87;;;10.00;99.90;;;;;;5053861;28;20942;-77
2023/04/21 06:38:11;;;;;;;17.35;9.15;;;10.10;99.90;;;;;;5066638;28;20397;-76
2023/04/21 06:40:36;;;;;;;15.47;9.43;;;10.10;99.90;;;;;;5069568;28;20459;-76
2023/04/21 06:43:02;;;;;;;15.23;9.00;;;10.20;99.90;;;;;;5066486;28;20779;-76
2023/04/21 06:45:28;;;;;;;18.20;9.50;;;10.30;99.90;;;;;;5070086;28;20453;-73
2023/04/21 06:47:53;;;;;;;19.02;9.57;;;10.30;99.90;;;;;;5084277;28;20394;-74
2023/04/21 06:50:19;;;;;;;17.67;9.37;;;10.40;99.90;;;;;;5088190;28;20398;-75
2023/04/21 06:52:45;;;;;;;15.20;8.90;;;10.50;99.90;;;;;;5073666;28;20406;-74
2023/04/21 06:55:10;;;;;;;15.60;8.98;;;10.50;99.90;;;;;;5070018;28;20444;-74
2023/04/21 06:57:36;;;;;;;14.60;8.87;;;10.50;99.90;;;;;;5069069;28;20431;-75
2023/04/21 07:00:04;;;;;;;16.05;8.85;;;10.60;99.90;;;;;;5084639;28;20479;-74
2023/04/21 07:02:30;;;;;;;17.15;8.95;;;10.70;99.90;;;;;;5052793;28;20419;-75
2023/04/21 07:04:55;;;;;;;14.03;8.00;;;10.70;99.90;;;;;;5077300;28;20406;-75
2023/04/21 07:07:21;;;;;;;16.25;8.02;;;10.80;99.90;;;;;;5076173;28;20410;-75
2023/04/21 07:09:47;;;;;;;15.00;8.27;;;10.90;99.90;;;;;;5069556;28;20415;-75
2023/04/21 07:12:13;;;;;;;16.20;8.00;;;10.90;99.90;;;;;;5055443;28;20408;-75
2023/04/21 07:14:39;;;;;;;16.75;8.60;;;11.00;99.90;;;;;;5054438;28;20962;-75
2023/04/21 07:17:05;;;;;;;17.70;8.18;;;11.10;99.90;;;;;;5074717;28;20451;-76
2023/04/21 07:19:31;;;;;;;14.02;7.60;;;11.10;99.90;;;;;;5075806;28;20774;-75
2023/04/21 07:21:57;;;;;;;15.30;8.30;;;11.20;99.90;;;;;;5061494;28;20408;-75
2023/04/21 07:24:22;;;;;;;15.35;8.00;;;11.20;99.90;;;;;;5074221;28;20504;-75
2023/04/21 07:26:48;;;;;;;15.35;8.38;;;11.30;99.90;;;;;;5037277;28;20410;-75
2023/04/21 07:29:14;;;;;;;16.80;8.30;;;11.40;99.90;;;;;;5072140;28;20406;-75
2023/04/21 07:31:39;;;;;;;17.48;8.75;;;11.40;99.90;;;;;;5086940;28;20792;-75
2023/04/21 07:34:05;;;;;;;15.05;8.07;;;11.50;99.90;;;;;;5072093;28;20838;-75
2023/04/21 07:36:31;;;;;;;17.13;8.60;;;11.60;99.90;;;;;;5069587;28;20443;-74
2023/04/21 07:38:56;;;;;;;15.65;8.57;;;11.60;99.90;;;;;;5071745;28;20761;-74
2023/04/21 07:41:22;;;;;;;16.43;8.80;;;11.70;99.90;;;;;;5036698;28;20438;-74
2023/04/21 07:43:48;;;;;;;17.17;8.32;;;11.70;99.90;;;;;;5071162;28;21006;-74
2023/04/21 07:46:13;;;;;;;18.00;9.20;;;11.80;99.90;;;;;;5071487;28;20877;-75
2023/04/21 07:48:39;;;;;;;15.65;8.38;;;11.80;99.90;;;;;;5071277;28;20482;-75
2023/04/21 07:51:05;;;;;;;17.50;8.70;;;11.90;99.90;;;;;;5071069;28;20475;-75
2023/04/21 07:53:31;;;;;;;15.30;8.50;;;12.00;99.90;;;;;;5071731;28;20396;-75
2023/04/21 07:55:57;;;;;;;15.73;8.55;;;12.10;99.90;;;;;;5052852;28;20730;-74
2023/04/21 07:58:23;;;;;;;15.55;8.32;;;12.10;99.90;;;;;;5059648;28;20408;-75
2023/04/21 08:00:49;;;;;;;13.18;8.05;;;12.20;99.90;;;;;;5052519;28;20465;-75
2023/04/21 08:03:15;;;;;;;13.53;7.70;;;12.20;99.90;;;;;;5086273;28;20774;-75
2023/04/21 08:05:41;;;;;;;14.02;7.78;;;12.30;99.90;;;;;;5070858;28;20411;-75
2023/04/21 08:08:06;;;;;;;15.90;7.93;;;12.30;99.90;;;;;;5058846;28;20409;-75
2023/04/21 08:10:32;;;;;;;16.93;8.33;;;12.40;99.90;;;;;;5096134;28;20446;-75
2023/04/21 08:12:58;;;;;;;15.07;8.07;;;12.40;99.90;;;;;;5050651;28;20766;-76
2023/04/21 08:15:24;;;;;;;16.40;8.43;;;12.50;99.90;;;;;;5068344;28;20482;-75
2023/04/21 08:17:50;;;;;;;15.05;8.20;;;12.60;99.90;;;;;;5050668;28;20439;-75
2023/04/21 08:20:16;;;;;;;16.45;7.80;;;12.70;99.90;;;;;;5050016;28;20423;-75
2023/04/21 08:22:41;;;;;;;15.17;7.97;;;12.70;99.90;;;;;;5060695;28;20406;-75
2023/04/21 08:25:07;;;;;;;16.42;8.15;;;12.80;99.90;;;;;;5067511;28;20547;-75
2023/04/21 08:27:33;;;;;;;14.35;7.43;;;12.80;99.90;;;;;;5102484;28;20410;-75
2023/04/21 08:29:59;;;;;;;14.87;7.70;;;12.90;99.90;;;;;;5066393;28;20390;-74
2023/04/21 08:32:25;;;;;;;15.05;7.80;;;13.00;99.90;;;;;;5068422;28;20475;-75
2023/04/21 08:34:52;;;;;;;14.15;7.50;;;13.10;99.90;;;;;;5084271;28;20490;-74
2023/04/21 08:37:18;;;;;;;14.52;7.32;;;13.30;99.90;;;;;;5086604;28;20422;-74
2023/04/21 08:39:45;;;;;;;15.55;7.50;;;13.30;99.90;;;;;;5066143;28;20489;-75
2023/04/21 08:42:18;;;;;;;14.98;7.40;;;13.50;99.90;;;;;;5085231;28;20418;-77
2023/04/21 08:44:45;;;;;;;17.75;7.85;;;13.50;99.90;;;;;;5096346;28;20427;-77
2023/04/21 08:47:12;;;;;;;15.48;7.32;;;13.60;99.90;;;;;;5067379;28;20412;-74
2023/04/21 08:49:39;;;;;;;16.17;7.63;;;13.70;99.90;;;;;;5083017;28;20402;-74
2023/04/21 08:52:05;;;;;;;14.80;7.20;;;13.70;99.90;;;;;;5079338;28;20463;-74
2023/04/21 08:54:32;;;;;;;17.93;7.57;;;13.80;99.90;;;;;;5061904;28;20898;-75
2023/04/21 08:56:58;;;;;;;15.38;7.15;;;13.90;99.90;;;;;;5067468;28;20427;-74
2023/04/21 08:59:24;;;;;;;16.48;7.30;;;14.00;99.90;;;;;;5075465;28;20487;-74
2023/04/21 09:02:09;;;;;;;12.50;7.23;;;14.20;99.90;;;;;;5068009;28;20812;-74
2023/04/21 09:04:40;;;;;;;19.00;7.33;;;14.30;99.90;;;;;;5083275;28;20986;-75
2023/04/21 09:07:07;;;;;;;14.10;7.60;;;14.40;99.90;;;;;;5067918;28;20413;-75
2023/04/21 09:09:53;;;;;;;15.40;7.60;;;14.50;99.90;;;;;;5059950;28;20404;-75
2023/04/21 09:12:19;;;;;;;14.60;7.00;;;14.50;99.90;;;;;;5032915;28;20457;-75
2023/04/21 09:14:45;;;;;;;15.82;7.18;;;14.70;99.90;;;;;;5049930;28;20402;-75
2023/04/21 09:17:11;;;;;;;15.20;7.43;;;14.80;99.90;;;;;;5049037;28;20432;-75
2023/04/21 09:19:37;;;;;;;14.43;6.83;;;14.90;99.90;;;;;;5095665;28;20394;-75
2023/04/21 09:22:02;;;;;;;16.65;7.43;;;15.10;99.90;;;;;;5074126;28;20417;-75
2023/04/21 09:24:29;;;;;;;16.23;7.37;;;15.50;99.90;;;;;;5056121;28;20837;-75
2023/04/21 09:26:54;;;;;;;13.25;6.40;;;16.10;99.90;;;;;;5090780;28;20949;-73
2023/04/21 09:29:24;;;;;;;16.93;6.93;;;16.70;99.90;;;;;;5081284;28;20465;-74
2023/04/21 09:31:51;;;;;;;17.45;6.60;;;17.10;99.90;;;;;;5079320;28;20534;-74
2023/04/21 09:34:26;;;;;;;15.52;6.65;;;17.50;99.90;;;;;;5078323;28;20399;-73
2023/04/21 09:37:03;;;;;;;16.30;6.53;;;17.80;99.90;;;;;;5063189;28;20473;-73
2023/04/21 09:39:30;;;;;;;13.13;6.38;;;18.10;99.90;;;;;;5078793;28;20408;-74
2023/04/21 09:41:57;;;;;;;18.05;6.88;;;18.50;99.90;;;;;;5068222;28;20449;-74
2023/04/21 09:44:25;;;;;;;;;;;18.70;99.90;;;;;;5089914;28;20036;-74
2023/04/21 09:46:52;;;;;;;;;;;18.90;99.90;;;;;;5084376;28;19931;-73
2023/04/21 09:49:20;;;;;;;;;;;19.00;99.90;;;;;;5080826;28;19927;-74
2023/04/21 09:51:45;;;;;;;;;;;19.10;99.90;;;;;;5081764;28;20360;-73
2023/04/21 09:54:20;;;;;;;;;;;19.20;99.90;;;;;;5087390;28;20018;-73
2023/04/21 09:56:48;;;;;;;;;;;19.30;99.90;;;;;;5082234;28;19920;-74
2023/04/21 09:59:16;;;;;;;;;;;19.40;99.90;;;;;;5078520;28;19923;-74
2023/04/21 10:01:42;;;;;;;;;;;19.60;99.90;;;;;;5079731;28;19999;-73
2023/04/21 10:04:08;;;;;;;;;;;20.00;99.90;;;;;;5076971;28;20453;-72
2023/04/21 10:06:35;;;;;;;;;;;20.20;99.90;;;;;;5079870;28;20382;-73
2023/04/21 10:09:04;;;;;;;9.90;4.93;;;20.30;99.90;;;;;;5065631;28;19924;-73
2023/04/21 10:11:31;;;;;;;11.57;5.00;;;20.50;99.90;;;;;;5071217;28;20047;-73
2023/04/21 10:13:57;;;;;;;10.43;4.72;;;20.60;99.90;;;;;;5066570;28;20045;-73
2023/04/21 10:16:23;;;;;;;10.27;4.93;;;20.70;99.90;;;;;;5071518;28;20456;-73
2023/04/21 10:18:48;;;;;;;12.73;5.50;;;20.80;99.90;;;;;;5076455;28;20401;-73
2023/04/21 10:21:20;;;;;;;12.40;5.47;;;20.90;99.70;;;;;;5076903;28;20412;-73
2023/04/21 10:23:52;;;;;;;13.13;5.50;;;21.00;99.90;;;;;;5070409;28;20411;-73
2023/04/21 10:26:31;;;;;;;12.20;5.50;;;21.10;99.90;;;;;;5069847;28;20482;-74
2023/04/21 10:29:03;;;;;;;;;;;21.10;97.80;;;;;;5072198;28;20135;-73
2023/04/21 10:31:52;;;;;;;11.25;5.30;;;21.00;98.30;;;;;;5076965;28;19975;-73
2023/04/21 10:34:27;;;;;;;;;;;21.10;98.40;;;;;;5038914;28;20044;-73
2023/04/21 10:36:53;;;;;;;11.93;4.75;;;21.20;97.30;;;;;;5067960;28;19920;-73
2023/04/21 10:39:27;;;;;;;10.45;4.25;;;21.40;96.40;;;;;;5070140;28;20044;-73
2023/04/21 10:42:18;;;;;;;11.25;4.85;;;21.50;96.90;;;;;;5055360;28;20451;-73
2023/04/21 10:44:56;;;;;;;13.95;5.00;;;21.60;97.90;;;;;;5054868;28;20573;-73
2023/04/21 10:47:26;;;;;;;13.02;4.80;;;21.80;96.00;;;;;;5036977;28;20045;-73
2023/04/21 10:49:54;;;;;;;9.40;4.90;;;21.90;96.50;;;;;;5070092;28;20558;-73
2023/04/21 10:52:20;;;;;;;12.05;4.30;;;22.00;96.30;;;;;;5054854;28;20041;-73
2023/04/21 10:54:45;;;;;;;;;;;22.10;95.50;;;;;;5074176;28;20037;-73
2023/04/21 10:57:20;;;;;;;;;;;22.20;94.20;;;;;;5069374;28;19973;-73
2023/04/21 10:59:47;;;;;;;11.73;4.55;;;22.40;94.70;;;;;;5048777;28;19927;-73
2023/04/21 11:02:21;;;;;;;9.70;4.85;;;22.40;93.30;;;;;;5086830;28;20148;-73
2023/04/21 11:04:53;;;;;;;;;;;22.40;93.90;;;;;;5057285;28;20040;-74
2023/04/21 11:07:20;;;;;;;;;;;22.40;93.00;;;;;;5074873;28;19920;-74
2023/04/21 11:09:46;;;;;;;;;;;22.40;92.90;;;;;;5055961;28;19986;-73
2023/04/21 11:12:16;;;;;;;;;;;22.50;93.50;;;;;;5076998;28;19971;-74
2023/04/21 11:14:43;;;;;;;;;;;22.50;91.20;;;;;;5083835;28;19920;-73
2023/04/21 11:17:12;;;;;;;;;;;22.50;90.40;;;;;;5071286;28;19920;-74
2023/04/21 11:19:38;;;;;;;12.52;4.88;;;22.60;91.50;;;;;;5068750;28;19942;-74
2023/04/21 11:22:04;;;;;;;14.32;5.05;;;22.70;92.40;;;;;;5069997;28;20044;-74
2023/04/21 11:24:30;;;;;;;;;;;22.80;92.00;;;;;;5070478;28;20376;-73
2023/04/21 11:26:57;;;;;;;;;;;23.10;91.60;;;;;;5106259;28;19920;-74
2023/04/21 11:29:23;;;;;;;;;;;23.10;88.80;;;;;;5093859;28;19927;-74
2023/04/21 11:31:49;;;;;;;;;;;23.10;90.90;;;;;;5069479;28;19924;-74
2023/04/21 11:34:18;;;;;;;9.45;4.82;;;23.20;83.80;;;;;;5085329;28;19920;-73
2023/04/21 11:36:45;;;;;;;8.60;4.63;;;23.20;88.10;;;;;;5074255;28;20468;-73
2023/04/21 11:39:12;;;;;;;;;;;23.20;84.80;;;;;;5088997;28;20862;-74
2023/04/21 11:41:42;;;;;;;;;;;23.20;81.60;;;;;;5074135;28;19963;-74
2023/04/21 11:44:09;;;;;;;;;;;23.30;84.00;;;;;;5071229;28;20612;-74
2023/04/21 11:46:38;;;;;;;;;;;23.50;80.40;;;;;;5066044;28;19924;-74
2023/04/21 11:49:10;;;;;;;;;;;23.60;79.70;;;;;;5077603;28;19927;-74
2023/04/21 11:51:36;;;;;;;;;;;23.60;74.00;;;;;;5086078;28;19919;-74
2023/04/21 11:54:03;;;;;;;;;;;23.50;76.80;;;;;;5052698;28;19927;-74
2023/04/21 11:56:28;;;;;;;;;;;23.50;74.10;;;;;;5059691;28;19920;-74
2023/04/21 11:58:55;;;;;;;;;;;23.60;72.90;;;;;;5043086;28;19920;-74
2023/04/21 12:01:20;;;;;;;;;;;23.60;75.70;;;;;;5070134;28;19928;-74
2023/04/21 12:03:52;;;;;;;;;;;23.60;72.90;;;;;;5079658;28;19932;-74
2023/04/21 12:06:22;;;;;;;;;;;23.60;72.50;;;;;;5070370;28;19924;-74
2023/04/21 12:08:48;;;;;;;;;;;23.70;70.70;;;;;;5060771;28;19927;-74
2023/04/21 12:11:15;;;;;;;;;;;23.80;72.70;;;;;;5062392;28;19923;-74
2023/04/21 12:13:41;;;;;;;;;;;24.00;68.70;;;;;;5067837;28;19927;-74
2023/04/21 12:16:06;;;;;;;;;;;23.90;67.70;;;;;;5067898;28;19920;-74
2023/04/21 12:18:32;;;;;;;;;;;23.90;67.00;;;;;;5099621;28;19928;-74
2023/04/21 12:20:59;;;;;;;;;;;23.90;67.40;;;;;;5053630;28;20007;-74
2023/04/21 12:23:25;;;;;;;8.87;4.07;;;24.00;66.00;;;;;;5082220;28;19931;-73
2023/04/21 12:25:51;;;;;;;10.70;3.75;;;24.10;66.80;;;;;;5042506;28;20475;-73
2023/04/21 12:28:17;;;;;;;8.25;3.60;;;24.10;63.00;;;;;;5080601;28;21189;-73
2023/04/21 12:30:43;;;;;;;6.53;3.63;;;24.00;63.50;;;;;;5058153;28;20413;-73
2023/04/21 12:33:08;;;;;;;11.93;4.35;;;24.20;66.70;;;;;;5062345;28;20473;-73
2023/04/21 12:35:34;;;;;;;13.60;3.90;;;24.30;62.30;;;;;;5067516;28;20407;-73
2023/04/21 12:38:01;;;;;;;9.63;3.83;;;24.40;65.30;;;;;;5080304;28;20471;-74
2023/04/21 12:40:27;;;;;;;7.80;3.60;;;24.50;63.20;;;;;;5076628;28;20507;-74
2023/04/21 12:42:53;;;;;;;6.72;3.28;;;24.70;64.70;;;;;;5063537;28;20447;-73
2023/04/21 12:45:19;;;;;;;5.87;3.17;;;25.00;65.80;;;;;;5053030;28;20407;-74
2023/04/21 12:47:44;;;;;;;7.60;3.30;;;25.10;61.90;;;;;;5069300;28;20411;-73